createdAt,value
2018-06-08T00:01:16.880Z,87.20
2018-06-08T00:03:44.350Z,86.37
2018-06-08T00:06:11.799Z,86.87
2018-06-08T00:08:39.439Z,86.60
2018-06-08T00:11:06.893Z,86.06
2018-06-08T00:13:34.999Z,86.06
2018-06-08T00:16:02.523Z,86.67
2018-06-08T00:18:30.011Z,86.97
2018-06-08T00:20:58.051Z,87.72
2018-06-08T00:23:25.456Z,87.45
2018-06-08T00:25:52.952Z,86.75
2018-06-08T00:28:20.362Z,87.83
2018-06-08T00:30:47.996Z,88.70
2018-06-08T00:33:15.469Z,88.19
2018-06-08T00:35:42.853Z,88.27
2018-06-08T00:40:44.146Z,88.74
2018-06-08T00:43:11.514Z,88.37
2018-06-08T00:45:39.134Z,88.43
2018-06-08T00:48:06.633Z,87.40
2018-06-08T00:50:34.061Z,87.29
2018-06-08T00:53:01.499Z,85.46
2018-06-08T00:55:28.979Z,87.46
2018-06-08T00:57:56.366Z,87.41
2018-06-08T01:00:23.801Z,87.09
2018-06-08T01:02:51.245Z,87.13
2018-06-08T01:05:20.005Z,87.56
2018-06-08T01:07:47.446Z,86.37
2018-06-08T01:10:15.523Z,87.26
2018-06-08T01:12:42.927Z,85.65
2018-06-08T01:15:10.439Z,86.68
2018-06-08T01:17:37.826Z,85.00
2018-06-08T01:20:05.338Z,86.92
2018-06-08T01:22:33.021Z,86.98
2018-06-08T01:25:00.529Z,87.07
2018-06-08T01:27:27.956Z,86.67
2018-06-08T01:29:55.431Z,87.86
2018-06-08T01:32:22.867Z,87.05
2018-06-08T01:34:50.311Z,87.97
2018-06-08T01:37:17.764Z,85.99
2018-06-08T01:39:45.169Z,86.59
2018-06-08T01:42:13.191Z,87.82
2018-06-08T01:44:40.751Z,87.98
2018-06-08T01:47:08.150Z,88.38
2018-06-08T01:49:35.528Z,87.79
2018-06-08T01:52:02.925Z,88.10
2018-06-08T01:54:30.341Z,87.75
2018-06-08T01:56:57.736Z,86.74
2018-06-08T01:59:25.198Z,88.36
2018-06-08T02:01:52.685Z,88.49
2018-06-08T02:04:20.198Z,88.07
2018-06-08T02:06:48.229Z,88.16
2018-06-08T02:09:15.640Z,88.21
2018-06-08T02:11:43.133Z,88.91
2018-06-08T02:14:10.546Z,88.76
2018-06-08T02:16:38.038Z,88.64
2018-06-08T02:19:05.518Z,87.70
2018-06-08T02:21:33.693Z,88.65
2018-06-08T02:24:01.097Z,89.18
2018-06-08T02:26:28.534Z,88.72
2018-06-08T02:28:55.930Z,88.37
2018-06-08T02:31:23.414Z,87.01
2018-06-08T02:33:50.981Z,87.55
2018-06-08T02:36:18.585Z,87.97
2018-06-08T02:38:46.605Z,87.52
2018-06-08T02:41:14.065Z,88.64
2018-06-08T02:43:42.092Z,88.91
2018-06-08T02:46:09.601Z,88.37
2018-06-08T02:48:37.062Z,88.73
2018-06-08T02:51:04.421Z,88.19
2018-06-08T02:53:31.825Z,88.63
2018-06-08T02:55:59.282Z,89.16
2018-06-08T02:58:26.677Z,89.24
2018-06-08T03:00:54.058Z,88.44
2018-06-08T03:03:21.495Z,87.38
2018-06-08T03:05:48.956Z,88.61
2018-06-08T03:08:16.397Z,88.38
2018-06-08T03:10:44.570Z,88.82
2018-06-08T03:13:12.001Z,88.38
2018-06-08T03:15:39.405Z,89.36
2018-06-08T03:18:06.808Z,89.21
2018-06-08T03:20:34.339Z,89.04
2018-06-08T03:23:01.844Z,89.00
2018-06-08T03:25:29.610Z,88.59
2018-06-08T03:27:57.201Z,89.35
2018-06-08T03:30:24.748Z,89.51
2018-06-08T03:32:52.824Z,89.86
2018-06-08T03:35:20.281Z,89.14
2018-06-08T03:37:47.689Z,88.53
2018-06-08T03:40:15.069Z,89.03
2018-06-08T03:42:42.516Z,88.52
2018-06-08T03:45:09.999Z,89.17
2018-06-08T03:47:37.415Z,88.50
2018-06-08T03:50:04.837Z,89.07
2018-06-08T03:52:32.349Z,88.58
2018-06-08T03:54:59.773Z,87.74
2018-06-08T03:57:27.212Z,88.58
2018-06-08T03:59:54.605Z,88.75
2018-06-08T04:02:22.074Z,89.15
2018-06-08T04:04:49.442Z,88.58
2018-06-08T04:07:16.887Z,89.02
2018-06-08T04:09:44.304Z,88.89
2018-06-08T04:12:12.677Z,89.40
2018-06-08T04:14:40.128Z,89.11
2018-06-08T04:17:07.509Z,88.61
2018-06-08T04:19:34.978Z,88.91
2018-06-08T04:22:02.497Z,89.34
2018-06-08T04:24:29.957Z,89.29
2018-06-08T04:26:57.463Z,89.52
2018-06-08T04:29:25.078Z,88.86
2018-06-08T04:31:52.673Z,89.94
2018-06-08T04:34:20.081Z,89.18
2018-06-08T04:36:47.547Z,89.23
2018-06-08T04:39:15.096Z,88.67
2018-06-08T04:41:42.574Z,88.90
2018-06-08T04:44:10.002Z,89.67
2018-06-08T04:46:37.518Z,89.02
2018-06-08T04:49:05.062Z,88.78
2018-06-08T04:51:32.458Z,88.55
2018-06-08T04:53:59.955Z,90.45
2018-06-08T04:56:27.385Z,89.16
2018-06-08T04:58:54.745Z,90.00
2018-06-08T05:01:22.230Z,88.62
2018-06-08T05:03:49.601Z,89.23
2018-06-08T05:06:17.017Z,89.33
2018-06-08T05:08:44.548Z,89.65
2018-06-08T05:11:11.955Z,88.84
2018-06-08T05:13:39.505Z,89.06
2018-06-08T05:16:07.083Z,88.78
2018-06-08T05:18:34.534Z,87.95
2018-06-08T05:21:01.962Z,88.67
2018-06-08T05:23:29.666Z,88.24
2018-06-08T05:25:57.129Z,88.09
2018-06-08T05:28:24.633Z,87.21
2018-06-08T05:30:52.069Z,87.59
2018-06-08T05:33:19.649Z,86.98
2018-06-08T05:35:47.184Z,87.97
2018-06-08T05:38:14.628Z,87.38
2018-06-08T05:40:42.016Z,86.80
2018-06-08T05:43:09.439Z,86.71
2018-06-08T05:45:37.661Z,86.82
2018-06-08T05:48:05.116Z,86.39
2018-06-08T05:50:32.716Z,86.73
2018-06-08T05:53:00.146Z,86.12
2018-06-08T05:55:27.537Z,85.73
2018-06-08T05:57:54.927Z,86.09
2018-06-08T06:00:22.357Z,85.26
2018-06-08T06:02:49.774Z,85.81
2018-06-08T06:05:17.284Z,86.06
2018-06-08T06:07:44.689Z,85.17
2018-06-08T06:10:12.178Z,85.20
2018-06-08T06:12:39.671Z,86.05
2018-06-08T06:15:07.096Z,83.98
2018-06-08T06:17:34.499Z,85.02
2018-06-08T06:20:01.883Z,85.09
2018-06-08T06:22:29.333Z,83.94
2018-06-08T06:24:56.728Z,84.22
2018-06-08T06:27:24.708Z,83.52
2018-06-08T06:29:52.270Z,83.64
2018-06-08T06:32:19.774Z,83.31
2018-06-08T06:34:47.158Z,83.63
2018-06-08T06:37:14.782Z,84.19
2018-06-08T06:39:42.371Z,83.02
2018-06-08T06:42:09.816Z,82.56
2018-06-08T06:44:37.232Z,83.07
2018-06-08T06:47:05.104Z,82.66
2018-06-08T06:49:33.112Z,82.39
2018-06-08T06:52:00.604Z,80.56
2018-06-08T06:54:28.055Z,81.84
2018-06-08T06:56:55.543Z,81.94
2018-06-08T06:59:23.071Z,80.91
2018-06-08T07:01:50.578Z,79.66
2018-06-08T07:04:18.026Z,80.39
2018-06-08T07:06:45.621Z,81.67
2018-06-08T07:09:13.196Z,80.63
2018-06-08T07:11:40.681Z,80.48
2018-06-08T07:14:08.178Z,79.57
2018-06-08T07:16:35.707Z,79.91
2018-06-08T07:19:03.149Z,80.99
2018-06-08T07:21:30.880Z,79.71
2018-06-08T07:23:58.348Z,80.14
2018-06-08T07:26:27.918Z,79.90
2018-06-08T07:28:55.516Z,80.49
2018-06-08T07:31:22.988Z,79.09
2018-06-08T07:33:50.428Z,80.53
2018-06-08T07:36:17.842Z,80.11
2018-06-08T07:38:45.345Z,79.80
2018-06-08T07:41:12.838Z,79.19
2018-06-08T07:43:41.074Z,80.10
2018-06-08T07:46:09.123Z,79.55
2018-06-08T07:48:36.699Z,80.24
2018-06-08T07:51:04.225Z,80.88
2018-06-08T07:53:31.828Z,81.20
2018-06-08T07:55:59.255Z,79.94
2018-06-08T07:58:26.686Z,79.83
2018-06-08T08:00:54.102Z,80.85
2018-06-08T08:03:21.580Z,80.48
2018-06-08T08:05:49.157Z,80.94
2018-06-08T08:08:16.722Z,79.74
2018-06-08T08:10:44.842Z,80.04
2018-06-08T08:13:12.241Z,79.21
2018-06-08T08:15:39.657Z,79.11
2018-06-08T08:18:07.093Z,78.74
2018-06-08T08:20:34.580Z,78.11
2018-06-08T08:23:01.968Z,78.54
2018-06-08T08:25:29.409Z,78.38
2018-06-08T08:27:56.857Z,77.83
2018-06-08T08:30:24.272Z,77.42
2018-06-08T08:32:51.797Z,77.90
2018-06-08T08:35:19.302Z,78.54
2018-06-08T08:37:46.738Z,80.17
2018-06-08T08:40:14.205Z,78.74
2018-06-08T08:42:41.622Z,78.09
2018-06-08T08:45:09.243Z,80.33
2018-06-08T08:47:36.762Z,80.31
2018-06-08T08:50:11.315Z,78.54
2018-06-08T08:52:38.753Z,78.42
2018-06-08T08:55:06.138Z,78.78
2018-06-08T08:57:33.671Z,78.62
2018-06-08T09:00:01.833Z,78.23
2018-06-08T09:02:29.858Z,79.95
2018-06-08T09:04:57.351Z,79.10
2018-06-08T09:07:24.731Z,78.58
2018-06-08T09:09:52.109Z,78.71
2018-06-08T09:12:19.504Z,79.19
2018-06-08T09:14:46.926Z,78.47
2018-06-08T09:17:14.336Z,78.70
2018-06-08T09:19:42.276Z,77.76
2018-06-08T09:22:09.813Z,78.22
2018-06-08T09:24:37.392Z,79.29
2018-06-08T09:27:04.851Z,79.02
2018-06-08T09:29:32.730Z,78.81
2018-06-08T09:32:00.185Z,80.06
2018-06-08T09:34:27.608Z,79.44
2018-06-08T09:36:55.070Z,78.60
2018-06-08T09:39:22.553Z,80.11
2018-06-08T09:41:50.688Z,80.87
2018-06-08T09:44:18.645Z,82.27
2018-06-08T09:46:46.097Z,81.37
2018-06-08T09:49:13.631Z,80.81
2018-06-08T09:51:41.145Z,81.08
2018-06-08T09:54:08.601Z,82.20
2018-06-08T09:56:36.110Z,82.60
2018-06-08T09:59:03.554Z,81.14
2018-06-08T10:01:31.424Z,82.73
2018-06-08T10:03:58.926Z,79.62
2018-06-08T10:06:26.331Z,81.23
2018-06-08T10:08:54.725Z,82.01
2018-06-08T10:11:22.858Z,82.38
2018-06-08T10:13:50.339Z,83.79
2018-06-08T10:16:18.559Z,83.81
2018-06-08T10:18:46.072Z,85.48
2018-06-08T10:21:13.489Z,84.51
2018-06-08T10:23:41.188Z,84.10
2018-06-08T10:26:09.222Z,84.70
2018-06-08T10:28:37.522Z,85.32
2018-06-08T10:31:05.264Z,85.91
2018-06-08T10:33:32.728Z,85.27
2018-06-08T10:36:00.276Z,84.28
2018-06-08T10:38:27.930Z,85.16
2018-06-08T10:40:55.553Z,84.97
2018-06-08T10:43:22.943Z,84.05
2018-06-08T10:45:50.530Z,83.82
2018-06-08T10:48:17.969Z,83.40
2018-06-08T10:50:45.533Z,81.30
2018-06-08T10:53:12.977Z,82.80
2018-06-08T10:55:40.391Z,81.84
2018-06-08T10:58:08.109Z,80.21
2018-06-08T11:00:35.668Z,81.82
2018-06-08T11:03:03.565Z,81.65
2018-06-08T11:05:31.395Z,81.36
2018-06-08T11:07:58.858Z,81.92
2018-06-08T11:10:26.471Z,80.81
2018-06-08T11:12:53.973Z,80.82
2018-06-08T11:15:21.428Z,82.44
2018-06-08T11:17:48.829Z,81.88
2018-06-08T11:20:16.378Z,81.95
2018-06-08T11:22:44.438Z,83.21
2018-06-08T11:25:11.864Z,82.77
2018-06-08T11:27:39.441Z,81.28
2018-06-08T11:30:06.862Z,79.90
2018-06-08T11:32:34.323Z,80.61
2018-06-08T11:35:01.841Z,80.42
2018-06-08T11:37:29.291Z,82.73
2018-06-08T11:39:56.950Z,81.08
2018-06-08T11:42:24.402Z,79.83
2018-06-08T11:44:51.945Z,80.81
2018-06-08T11:47:19.390Z,81.55
2018-06-08T11:49:46.894Z,82.62
2018-06-08T11:52:14.812Z,81.93
2018-06-08T11:54:42.920Z,81.26
2018-06-08T11:57:10.381Z,80.04
2018-06-08T11:59:37.819Z,79.96
2018-06-08T12:02:05.538Z,79.31
2018-06-08T12:04:33.015Z,80.89
2018-06-08T12:07:00.737Z,79.90
2018-06-08T12:09:28.241Z,79.50
2018-06-08T12:11:55.734Z,79.29
2018-06-08T12:14:23.176Z,78.90
2018-06-08T12:16:50.781Z,77.78
2018-06-08T12:19:18.245Z,76.37
2018-06-08T12:21:45.665Z,76.34
2018-06-08T12:24:14.145Z,75.97
2018-06-08T12:26:41.761Z,75.22
2018-06-08T12:29:09.933Z,75.62
2018-06-08T12:31:37.293Z,73.72
2018-06-08T12:34:04.896Z,71.71
2018-06-08T12:36:32.380Z,70.67
2018-06-08T12:38:59.804Z,71.45
2018-06-08T12:41:27.391Z,69.11
2018-06-08T12:43:55.014Z,69.63
2018-06-08T12:46:22.389Z,65.81
2018-06-08T12:48:49.779Z,63.11
2018-06-08T12:51:17.233Z,62.66
2018-06-08T12:53:44.680Z,64.69
2018-06-08T12:56:12.514Z,61.83
2018-06-08T12:58:39.913Z,58.44
2018-06-08T13:01:07.423Z,55.82
2018-06-08T13:03:34.828Z,54.43
2018-06-08T13:06:02.278Z,56.22
2018-06-08T13:08:29.729Z,55.00
2018-06-08T13:10:57.145Z,56.12
2018-06-08T13:13:25.569Z,55.56
2018-06-08T13:15:53.036Z,56.67
2018-06-08T13:18:20.997Z,55.24
2018-06-08T13:20:48.446Z,57.44
2018-06-08T13:23:15.856Z,57.51
2018-06-08T13:25:43.270Z,55.95
2018-06-08T13:28:10.638Z,56.70
2018-06-08T13:30:48.381Z,56.46
2018-06-08T13:33:16.171Z,60.28
2018-06-08T13:35:43.696Z,57.11
2018-06-08T13:38:11.179Z,58.09
2018-06-08T13:40:43.993Z,57.39
2018-06-08T13:43:11.784Z,59.77
2018-06-08T13:45:39.309Z,57.87
2018-06-08T13:48:06.705Z,57.48
2018-06-08T13:50:34.145Z,59.04
2018-06-08T13:53:01.564Z,59.85
2018-06-08T13:55:28.948Z,59.56
2018-06-08T13:57:56.430Z,59.79
2018-06-08T14:00:24.794Z,58.92
2018-06-08T14:02:52.469Z,59.15
2018-06-08T14:05:20.178Z,56.63
2018-06-08T14:07:47.845Z,55.77
2018-06-08T14:10:15.468Z,52.74
2018-06-08T14:12:43.020Z,51.76
2018-06-08T14:15:10.501Z,51.97
2018-06-08T14:17:38.118Z,51.80
2018-06-08T14:20:06.717Z,50.94
2018-06-08T14:22:34.318Z,49.19
2018-06-08T14:25:01.741Z,50.01
2018-06-08T14:27:29.350Z,48.45
2018-06-08T14:29:56.859Z,50.07
2018-06-08T14:32:25.085Z,52.16
2018-06-08T14:34:52.615Z,54.28
2018-06-08T14:37:20.254Z,54.99
2018-06-08T14:39:47.957Z,58.48
2018-06-08T14:42:15.526Z,57.47
2018-06-08T14:44:43.057Z,58.27
2018-06-08T14:47:11.562Z,57.86
2018-06-08T14:49:39.310Z,57.06
2018-06-08T14:52:06.881Z,57.03
2018-06-08T14:54:34.725Z,56.42
2018-06-08T14:57:02.539Z,55.92
2018-06-08T14:59:30.045Z,55.99
2018-06-08T15:01:57.617Z,54.25
2018-06-08T15:04:25.496Z,53.29
2018-06-08T15:06:53.389Z,53.91
2018-06-08T15:09:21.038Z,56.20
2018-06-08T15:11:48.511Z,57.27
2018-06-08T15:14:16.173Z,57.18
2018-06-08T15:16:43.691Z,57.05
2018-06-08T15:19:11.301Z,57.80
2018-06-08T15:21:39.036Z,56.13
2018-06-08T15:24:06.828Z,57.12
2018-06-08T15:26:34.502Z,56.69
2018-06-08T15:29:02.118Z,55.68
2018-06-08T15:31:29.708Z,59.35
2018-06-08T15:33:57.270Z,57.41
2018-06-08T15:36:24.874Z,55.18
2018-06-08T15:38:52.442Z,55.46
2018-06-08T15:41:19.951Z,55.33
2018-06-08T15:43:48.164Z,55.98
2018-06-08T15:46:15.742Z,56.44
2018-06-08T15:48:43.446Z,55.81
2018-06-08T15:51:11.115Z,55.95
2018-06-08T15:53:38.777Z,56.75
2018-06-08T15:56:06.371Z,57.78
2018-06-08T15:58:34.032Z,57.20
2018-06-08T16:01:01.635Z,58.58
2018-06-08T16:03:29.438Z,59.57
2018-06-08T16:05:56.933Z,59.67
2018-06-08T16:08:25.180Z,60.63
2018-06-08T16:10:52.694Z,60.27
2018-06-08T16:13:20.134Z,59.69
2018-06-08T16:15:47.628Z,61.39
2018-06-08T16:18:15.118Z,61.35
2018-06-08T16:20:43.501Z,64.12
2018-06-08T16:23:11.085Z,65.64
2018-06-08T16:25:38.745Z,66.40
2018-06-08T16:28:06.213Z,65.48
2018-06-08T16:30:33.808Z,63.98
2018-06-08T16:33:01.476Z,66.40
2018-06-08T16:35:28.965Z,66.01
2018-06-08T16:37:57.779Z,67.49
2018-06-08T16:40:25.321Z,69.59
2018-06-08T16:42:52.812Z,70.11
2018-06-08T16:45:20.221Z,69.64
2018-06-08T16:47:47.721Z,73.11
2018-06-08T16:50:15.329Z,72.94
2018-06-08T16:52:43.004Z,73.78
2018-06-08T16:55:10.532Z,74.50
2018-06-08T16:57:38.113Z,73.32
2018-06-08T17:00:05.703Z,73.28
2018-06-08T17:02:33.253Z,74.41
2018-06-08T17:05:00.883Z,74.22
2018-06-08T17:07:28.579Z,75.56
2018-06-08T17:09:56.082Z,75.88
2018-06-08T17:12:23.632Z,75.17
2018-06-08T17:14:51.186Z,76.34
2018-06-08T17:17:18.643Z,74.91
2018-06-08T17:19:46.081Z,76.44
2018-06-08T17:22:13.541Z,76.13
2018-06-08T17:24:41.003Z,76.71
2018-06-08T17:27:08.556Z,76.73
2018-06-08T17:29:36.068Z,76.37
2018-06-08T17:32:03.461Z,75.98
2018-06-08T17:34:31.031Z,77.96
2018-06-08T17:36:58.534Z,78.39
2018-06-08T17:39:25.965Z,78.16
2018-06-08T17:41:53.451Z,78.09
2018-06-08T17:44:21.037Z,78.53
2018-06-08T17:46:48.592Z,78.26
2018-06-08T17:49:16.132Z,80.52
2018-06-08T17:51:44.152Z,79.78
2018-06-08T17:54:11.690Z,78.89
2018-06-08T17:56:39.370Z,76.95
2018-06-08T17:59:06.862Z,77.50
2018-06-08T18:01:34.261Z,77.50
2018-06-08T18:04:01.885Z,78.53
2018-06-08T18:06:29.496Z,77.97
2018-06-08T18:08:57.039Z,79.38
2018-06-08T18:11:24.477Z,79.42
2018-06-08T18:13:51.916Z,80.12
2018-06-08T18:16:19.560Z,80.19
2018-06-08T18:18:47.134Z,80.01
2018-06-08T18:21:14.649Z,77.72
2018-06-08T18:23:42.078Z,79.69
2018-06-08T18:26:09.615Z,79.28
2018-06-08T18:28:37.137Z,78.90
2018-06-08T18:31:05.299Z,77.92
2018-06-08T18:33:34.049Z,78.04
2018-06-08T18:36:01.634Z,80.14
2018-06-08T18:38:29.536Z,81.01
2018-06-08T18:40:57.113Z,80.51
2018-06-08T18:43:24.655Z,80.56
2018-06-08T18:45:52.222Z,79.83
2018-06-08T18:48:19.710Z,80.18
2018-06-08T18:50:47.894Z,80.84
2018-06-08T18:53:15.366Z,80.87
2018-06-08T18:55:43.855Z,79.18
2018-06-08T18:58:12.275Z,80.96
2018-06-08T19:00:39.807Z,80.89
2018-06-08T19:03:07.423Z,78.75
2018-06-08T19:05:34.962Z,80.27
2018-06-08T19:08:02.478Z,80.52
2018-06-08T19:10:30.768Z,79.02
2018-06-08T19:12:58.327Z,79.72
2018-06-08T19:15:25.981Z,80.09
2018-06-08T19:17:53.615Z,81.25
2018-06-08T19:20:21.985Z,81.51
2018-06-08T19:22:50.349Z,81.33
2018-06-08T19:25:17.967Z,82.86
2018-06-08T19:27:45.693Z,80.86
2018-06-08T19:30:13.821Z,78.58
2018-06-08T19:32:41.467Z,82.25
2018-06-08T19:35:09.074Z,83.04
2018-06-08T19:37:36.706Z,82.88
2018-06-08T19:40:04.404Z,82.03
2018-06-08T19:42:31.909Z,81.63
2018-06-08T19:44:59.519Z,82.66
2018-06-08T19:47:27.010Z,81.82
2018-06-08T19:49:54.557Z,82.12
2018-06-08T19:52:22.333Z,82.55
2018-06-08T19:54:50.132Z,82.62
2018-06-08T19:57:17.714Z,83.38
2018-06-08T19:59:45.370Z,82.45
2018-06-08T20:02:13.598Z,80.86
2018-06-08T20:04:41.126Z,82.68
2018-06-08T20:07:09.035Z,82.06
2018-06-08T20:09:37.041Z,83.17
2018-06-08T20:12:06.087Z,82.82
2018-06-08T20:14:33.806Z,84.72
2018-06-08T20:17:01.375Z,83.10
2018-06-08T20:19:29.532Z,82.97
2018-06-08T20:21:58.575Z,81.00
2018-06-08T20:24:26.234Z,83.45
2018-06-08T20:26:53.910Z,83.27
2018-06-08T20:29:21.550Z,84.21
2018-06-08T20:31:49.189Z,83.70
2018-06-08T20:34:16.806Z,82.60
2018-06-08T20:36:44.366Z,84.22
2018-06-08T20:39:11.975Z,84.41
2018-06-08T20:41:39.487Z,84.24
2018-06-08T20:44:06.935Z,82.08
2018-06-08T20:46:35.268Z,83.43
2018-06-08T20:49:03.099Z,81.38
2018-06-08T20:51:30.549Z,83.64
2018-06-08T20:53:58.163Z,83.50
2018-06-08T20:56:25.715Z,82.97
2018-06-08T20:58:53.429Z,83.21
2018-06-08T21:01:20.905Z,84.27
2018-06-08T21:03:48.308Z,84.18
2018-06-08T21:06:15.777Z,83.08
2018-06-08T21:08:43.522Z,82.39
2018-06-08T21:11:11.045Z,81.16
2018-06-08T21:13:38.570Z,82.80
2018-06-08T21:16:06.660Z,83.81
2018-06-08T21:18:34.177Z,83.60
2018-06-08T21:21:02.771Z,84.11
2018-06-08T21:23:30.207Z,84.85
2018-06-08T21:25:57.637Z,84.63
2018-06-08T21:28:25.026Z,83.98
2018-06-08T21:30:52.507Z,83.46
2018-06-08T21:33:19.962Z,84.33
2018-06-08T21:35:47.432Z,85.00
2018-06-08T21:38:14.892Z,84.54
2018-06-08T21:40:42.393Z,83.96
2018-06-08T21:43:09.837Z,84.30
2018-06-08T21:45:37.427Z,83.62
2018-06-08T21:48:04.927Z,84.23
2018-06-08T21:50:33.147Z,84.29
2018-06-08T21:53:01.181Z,84.22
2018-06-08T21:55:29.217Z,83.89
2018-06-08T21:57:56.631Z,83.59
2018-06-08T22:00:24.274Z,82.75
2018-06-08T22:02:51.731Z,84.83
2018-06-08T22:05:19.244Z,84.54
2018-06-08T22:07:46.726Z,83.93
2018-06-08T22:10:14.273Z,84.46
2018-06-08T22:12:41.767Z,83.49
2018-06-08T22:15:09.240Z,83.49
2018-06-08T22:17:36.722Z,84.84
2018-06-08T22:20:05.116Z,84.13
2018-06-08T22:22:32.620Z,84.19
2018-06-08T22:25:00.081Z,83.16
2018-06-08T22:27:27.571Z,84.78
2018-06-08T22:29:55.131Z,83.92
2018-06-08T22:32:23.272Z,84.19
2018-06-08T22:34:50.854Z,83.83
2018-06-08T22:37:18.861Z,84.43
2018-06-08T22:39:46.259Z,84.75
2018-06-08T22:42:13.687Z,84.43
2018-06-08T22:44:41.094Z,85.03
2018-06-08T22:47:08.587Z,83.96
2018-06-08T22:49:35.986Z,84.23
2018-06-08T22:52:03.455Z,84.78
2018-06-08T22:54:30.903Z,83.89
2018-06-08T22:56:58.299Z,83.72
2018-06-08T22:59:25.833Z,84.03
2018-06-08T23:01:53.489Z,84.33
2018-06-08T23:04:20.940Z,84.26
2018-06-08T23:06:49.041Z,84.18
2018-06-08T23:09:16.565Z,84.16
2018-06-08T23:11:44.076Z,84.13
2018-06-08T23:14:11.476Z,84.07
2018-06-08T23:16:39.088Z,84.35
2018-06-08T23:19:06.594Z,85.03
2018-06-08T23:21:34.053Z,83.52
2018-06-08T23:24:01.462Z,84.62
2018-06-08T23:26:29.013Z,85.42
2018-06-08T23:28:56.418Z,85.37
2018-06-08T23:31:23.911Z,83.87
2018-06-08T23:33:51.521Z,83.64
2018-06-08T23:36:19.258Z,84.44
2018-06-08T23:38:46.812Z,84.84
2018-06-08T23:41:14.294Z,85.09
2018-06-08T23:43:41.712Z,84.75
2018-06-08T23:46:09.239Z,84.03
2018-06-08T23:48:36.781Z,84.62
2018-06-08T23:51:04.266Z,85.58
2018-06-08T23:53:31.645Z,84.74
2018-06-08T23:55:59.505Z,85.17
2018-06-08T23:58:27.547Z,84.34
